Time;durP1;ratioP1;P1;durP2;ratioP2;P2;SDS_P1;SDS_P2;PMS_P1;PMS_P2;Temp;Humidity;BMP_temperature;BMP_pressure;BME280_temperature;BME280_humidity;BME280_pressure;Samples;Min_cycle;Max_cycle;Signal;HPM_P1;HPM_P2
2023/02/27 00:00:30;;;;;;;18.90;7.20;;;;;;;-0.63;80.51;99062.09;436732;1252;112134;-38
2023/02/27 00:10:57;;;;;;;16.10;6.90;;;;;;;-0.70;80.11;99066.35;436892;1247;108235;-39
2023/02/27 00:21:04;;;;;;;12.20;4.80;;;;;;;-0.79;80.13;99069.34;435854;1252;97995;-40
2023/02/27 00:31:12;;;;;;;14.20;5.30;;;;;;;-0.85;79.87;99073.09;435947;1250;110782;-40
2023/02/27 00:41:18;;;;;;;9.40;4.60;;;;;;;-0.90;79.93;99075.77;436817;1248;107811;-41
2023/02/27 01:01:33;;;;;;;14.10;3.80;;;;;;;-0.80;79.48;99075.99;435719;1250;111641;-40
2023/02/27 01:11:41;;;;;;;17.50;5.40;;;;;;;-0.76;79.71;99069.70;435668;1247;107323;-40
2023/02/27 01:21:48;;;;;;;15.00;4.60;;;;;;;-0.83;79.63;99068.83;437084;1252;99321;-40
2023/02/27 01:31:56;;;;;;;15.30;5.20;;;;;;;-0.91;79.55;99077.77;435748;1252;112917;-39
2023/02/27 01:42:04;;;;;;;12.30;4.40;;;;;;;-0.97;79.65;99082.33;435776;1252;108096;-41
2023/02/27 01:52:15;;;;;;;11.90;2.60;;;;;;;-0.98;79.41;99094.67;437919;1248;99231;-42
2023/02/27 02:02:28;;;;;;;7.20;2.80;;;;;;;-0.89;79.52;99100.64;437101;1250;111937;-39
2023/02/27 02:12:39;;;;;;;7.00;3.20;;;;;;;-0.87;79.44;99111.33;437079;1250;109394;-39
2023/02/27 02:23:15;;;;;;;9.80;3.40;;;;;;;-0.94;79.69;99121.63;438333;1252;99228;-39
2023/02/27 02:33:46;;;;;;;8.30;3.30;;;;;;;-0.99;79.68;99137.86;435713;1252;110799;-39
2023/02/27 02:43:54;;;;;;;8.20;3.30;;;;;;;-1.05;79.70;99149.33;436530;1252;106667;-40
2023/02/27 02:54:04;;;;;;;8.90;2.80;;;;;;;-1.08;79.66;99152.60;438001;1249;97899;-40
2023/02/27 03:04:17;;;;;;;7.00;3.10;;;;;;;-1.05;79.53;99158.13;435712;1248;110459;-39
2023/02/27 03:14:30;;;;;;;7.30;3.30;;;;;;;-0.98;79.55;99168.43;435721;1249;108174;-40
2023/02/27 03:24:43;;;;;;;18.90;6.40;;;;;;;-0.85;79.69;99179.83;435548;1250;97979;-39
2023/02/27 03:34:51;;;;;;;19.10;6.80;;;;;;;-0.84;79.85;99181.52;435058;1249;574524;-39
2023/02/27 03:44:56;;;;;;;20.90;8.40;;;;;;;-0.92;79.73;99193.85;435537;1253;98580;-42
2023/02/27 03:55:11;;;;;;;16.80;6.30;;;;;;;-1.04;79.96;99200.83;435444;1255;111796;-39
2023/02/27 04:05:18;;;;;;;18.80;7.00;;;;;;;-1.14;79.89;99203.81;435296;1253;108669;-40
2023/02/27 04:15:23;;;;;;;14.50;6.80;;;;;;;-1.08;79.78;99193.39;435395;1249;99084;-40
2023/02/27 04:25:51;;;;;;;13.50;6.10;;;;;;;-1.02;79.64;99198.16;435629;1252;110567;-38
2023/02/27 04:35:56;;;;;;;12.20;5.90;;;;;;;-1.05;79.84;99203.64;435721;1250;108319;-38
2023/02/27 04:46:06;;;;;;;15.50;6.30;;;;;;;-1.12;80.06;99209.23;435831;1250;99110;-40
2023/02/27 04:56:15;;;;;;;13.50;4.90;;;;;;;-1.22;79.96;99220.29;435734;1252;107087;-39
2023/02/27 05:06:27;;;;;;;17.60;5.50;;;;;;;-1.30;80.12;99227.72;435757;1252;98817;-40
2023/02/27 05:16:36;;;;;;;15.50;6.40;;;;;;;-1.27;80.15;99230.22;435707;1248;112359;-40
2023/02/27 05:26:43;;;;;;;15.00;6.20;;;;;;;-1.15;80.23;99235.62;435709;1253;107119;-40
2023/02/27 05:47:05;;;;;;;50.70;19.40;;;;;;;-1.01;80.75;99255.67;436624;1261;108416;-40
2023/02/27 05:57:14;;;;;;;53.30;22.80;;;;;;;-1.10;80.71;99265.02;438939;1252;97943;-39
2023/02/27 06:07:22;;;;;;;28.20;13.50;;;;;;;-1.12;80.95;99276.31;439803;1253;98397;-38
2023/02/27 06:17:29;;;;;;;23.00;10.10;;;;;;;-1.04;81.06;99279.73;439011;1252;112111;-38
2023/02/27 06:27:37;;;;;;;15.50;8.40;;;;;;;-0.88;80.95;99286.05;439227;1247;108936;-40
2023/02/27 06:37:45;;;;;;;13.50;7.50;;;;;;;-0.79;81.30;99299.23;439055;1252;99241;-39
2023/02/27 06:47:52;;;;;;;17.30;8.00;;;;;;;-0.76;81.49;99302.75;439559;1254;107426;-39
2023/02/27 06:57:59;;;;;;;17.80;9.50;;;;;;;-0.81;81.62;99308.10;437571;1250;99225;-39
2023/02/27 07:08:06;;;;;;;19.20;9.10;;;;;;;-0.79;81.61;99313.61;439775;1248;112927;-40
2023/02/27 07:18:13;;;;;;;9.30;5.90;;;;;;;-0.61;81.81;99323.20;439635;1254;107629;-39
2023/02/27 07:28:21;;;;;;;19.00;8.70;;;;;;;-0.54;81.93;99334.48;439634;1253;99086;-39
2023/02/27 07:38:27;;;;;;;26.10;11.90;;;;;;;-0.61;82.41;99334.23;439567;1253;107231;-40
2023/02/27 07:48:34;;;;;;;15.30;9.30;;;;;;;-0.39;82.52;99339.17;438238;1254;107932;-39
2023/02/27 07:58:41;;;;;;;13.00;7.70;;;;;;;-0.30;82.41;99342.12;438492;1253;117662;-40
2023/02/27 08:08:48;;;;;;;12.00;7.50;;;;;;;-0.00;82.59;99353.38;435643;1262;108075;-40
2023/02/27 08:18:55;;;;;;;19.10;10.30;;;;;;;0.22;82.66;99363.58;435876;1255;99253;-40
2023/02/27 08:29:03;;;;;;;20.90;11.50;;;;;;;0.39;82.71;99375.66;435950;1253;112237;-39
2023/02/27 08:39:11;;;;;;;13.40;6.60;;;;;;;0.44;82.64;99388.18;435775;1253;108194;-41
2023/02/27 08:59:28;;;;;;;18.20;10.00;;;;;;;0.65;82.32;99404.33;435994;1247;110781;-39
2023/02/27 09:09:35;;;;;;;11.90;7.10;;;;;;;0.89;82.20;99404.23;436105;1252;107144;-40
2023/02/27 09:19:42;;;;;;;19.40;8.90;;;;;;;0.94;81.72;99417.48;437757;1248;99103;-41
2023/02/27 09:39:56;;;;;;;14.90;7.30;;;;;;;1.09;80.37;99437.20;437304;1253;108392;-41
2023/02/27 09:50:07;;;;;;;6.80;4.60;;;;;;;1.19;79.57;99446.15;436392;1252;99068;-40
2023/02/27 10:00:31;;;;;;;8.40;5.50;;;;;;;1.28;78.43;99452.08;437912;1248;112400;-40
2023/02/27 10:10:38;;;;;;;13.20;7.20;;;;;;;1.28;77.49;99460.54;436037;1253;107113;-39
2023/02/27 10:20:47;;;;;;;12.00;6.20;;;;;;;0.89;76.33;99464.64;436060;1248;99261;-40
2023/02/27 10:41:04;;;;;;;10.70;5.30;;;;;;;0.87;75.71;99445.41;436926;1248;107888;-40
2023/02/27 10:51:23;;;;;;;10.60;4.60;;;;;;;1.07;75.26;99440.69;436109;1253;98066;-40
2023/02/27 11:01:41;;;;;;;12.90;4.10;;;;;;;1.09;74.22;99433.88;436170;1254;110154;-40
2023/02/27 11:11:49;;;;;;;8.90;5.30;;;;;;;0.91;73.85;99448.69;436207;1254;107086;-41
2023/02/27 11:22:01;;;;;;;7.00;5.00;;;;;;;0.62;73.03;99458.95;436110;1248;99216;-41
2023/02/27 11:32:14;;;;;;;15.90;4.20;;;;;;;0.37;72.39;99464.41;436988;1247;111903;-40
2023/02/27 11:42:26;;;;;;;5.80;4.10;;;;;;;0.43;72.64;99453.59;437205;1247;106674;-40
2023/02/27 11:52:37;;;;;;;8.70;5.60;;;;;;;0.61;71.82;99448.61;437133;1252;99228;-40
2023/02/27 12:02:43;;;;;;;10.90;6.50;;;;;;;0.94;71.61;99451.19;437060;1254;110173;-40
2023/02/27 12:12:55;;;;;;;7.20;5.10;;;;;;;1.12;71.38;99446.77;436172;1252;109146;-39
2023/02/27 12:23:04;;;;;;;10.30;5.60;;;;;;;1.28;70.81;99445.31;435974;1253;99205;-39
2023/02/27 12:33:12;;;;;;;5.50;3.40;;;;;;;1.18;70.22;99449.16;435450;1250;113051;-41
2023/02/27 12:43:21;;;;;;;8.10;3.40;;;;;;;1.21;70.36;99446.68;435455;1251;107891;-40
2023/02/27 13:04:12;;;;;;;8.40;4.70;;;;;;;0.79;69.00;99475.52;435530;1253;112011;-40
2023/02/27 13:14:20;;;;;;;9.80;3.70;;;;;;;0.68;68.21;99486.80;435672;1254;107118;-40
2023/02/27 13:34:34;;;;;;;6.80;3.40;;;;;;;0.98;68.86;99486.23;436182;1253;111155;-39
2023/02/27 13:44:40;;;;;;;10.00;3.90;;;;;;;1.09;68.99;99484.46;435951;1252;107938;-42
2023/02/27 13:54:47;;;;;;;8.50;2.90;;;;;;;1.08;68.55;99482.31;437281;1252;97985;-39
2023/02/27 14:04:57;;;;;;;6.70;3.00;;;;;;;0.87;67.44;99485.39;438880;1252;111815;-40
2023/02/27 14:15:27;;;;;;;23.80;3.80;;;;;;;0.86;68.03;99483.33;436309;1252;108487;-40
2023/02/27 14:25:33;;;;;;;8.20;2.90;;;;;;;0.78;67.43;99499.58;436166;1253;98826;-40
2023/02/27 14:35:43;;;;;;;4.40;3.30;;;;;;;0.58;66.16;99510.12;436041;1252;111113;-42
2023/02/27 14:45:52;;;;;;;7.20;3.50;;;;;;;0.46;65.72;99521.17;436178;1254;107066;-40
2023/02/27 14:56:01;;;;;;;5.50;3.40;;;;;;;0.39;65.68;99532.25;436141;1247;99088;-40
2023/02/27 15:06:12;;;;;;;8.20;4.40;;;;;;;0.31;65.48;99544.77;436169;1248;111565;-40
2023/02/27 15:16:28;;;;;;;9.60;4.60;;;;;;;0.20;64.67;99553.02;436149;1253;107208;-40
2023/02/27 15:26:34;;;;;;;7.50;4.40;;;;;;;0.16;65.58;99561.96;435715;1252;368131;-39
2023/02/27 15:36:45;;;;;;;9.50;3.90;;;;;;;0.10;65.47;99572.73;436105;1252;112512;-40
2023/02/27 15:46:54;;;;;;;10.90;4.50;;;;;;;0.04;65.63;99584.57;435998;1252;107876;-42
2023/02/27 15:57:01;;;;;;;11.00;4.50;;;;;;;-0.06;65.55;99594.07;436031;1247;99217;-39
2023/02/27 16:07:13;;;;;;;12.50;6.10;;;;;;;-0.15;65.08;99608.79;436039;1248;110925;-40
2023/02/27 16:17:25;;;;;;;14.30;6.20;;;;;;;-0.22;65.26;99619.11;435831;1252;108006;-39
2023/02/27 16:27:32;;;;;;;9.90;5.40;;;;;;;-0.26;65.64;99628.88;436060;1247;99044;-39
2023/02/27 16:37:42;;;;;;;17.00;6.40;;;;;;;-0.29;66.08;99637.77;436028;1250;112906;-40
2023/02/27 16:47:47;;;;;;;15.00;7.00;;;;;;;-0.29;66.49;99654.73;438983;1248;108589;-40
2023/02/27 16:57:55;;;;;;;18.60;6.40;;;;;;;-0.30;66.79;99661.08;439096;1252;98876;-40
2023/02/27 17:08:03;;;;;;;24.70;9.70;;;;;;;-0.37;67.06;99670.48;439806;1252;112068;-40
2023/02/27 17:18:10;;;;;;;23.40;12.40;;;;;;;-0.39;67.01;99680.55;438436;1252;107456;-40
2023/02/27 17:28:18;;;;;;;22.10;10.70;;;;;;;-0.38;67.49;99683.45;437688;1252;99093;-39
2023/02/27 17:38:25;;;;;;;22.70;12.00;;;;;;;-0.41;67.88;99687.36;438432;1252;109127;-39
2023/02/27 17:48:32;;;;;;;22.10;11.40;;;;;;;-0.44;68.07;99695.91;436749;1248;99262;-39
2023/02/27 18:08:46;;;;;;;64.90;25.20;;;;;;;-0.55;67.72;99704.65;438179;1248;108865;-40
2023/02/27 18:18:53;;;;;;;72.70;29.80;;;;;;;-0.58;67.74;99704.09;437206;1252;99215;-40
2023/02/27 18:28:59;;;;;;;27.40;11.60;;;;;;;-0.63;67.57;99714.17;436152;1252;107655;-39
2023/02/27 18:39:07;;;;;;;21.20;10.80;;;;;;;-0.66;68.01;99717.52;436458;1252;99244;-39
2023/02/27 18:59:21;;;;;;;24.50;9.80;;;;;;;-0.72;68.24;99731.71;435827;1252;107271;-39
2023/02/27 19:09:31;;;;;;;21.60;10.20;;;;;;;-0.75;68.13;99739.10;435887;1249;99252;-39
2023/02/27 19:19:37;;;;;;;18.60;8.30;;;;;;;-0.77;68.19;99747.24;435864;1252;107539;-40
2023/02/27 19:29:45;;;;;;;26.70;8.70;;;;;;;-0.79;68.36;99759.84;435952;1248;98006;-39
2023/02/27 19:39:51;;;;;;;24.90;11.60;;;;;;;-0.81;68.27;99766.13;435862;1253;111178;-40
2023/02/27 19:49:58;;;;;;;23.30;11.30;;;;;;;-0.83;68.40;99768.41;435720;1248;107228;-40
2023/02/27 20:10:14;;;;;;;30.20;14.50;;;;;;;-0.88;68.57;99779.38;435842;1252;107681;-39
2023/02/27 20:20:22;;;;;;;35.40;15.10;;;;;;;-0.91;68.83;99787.02;435830;1252;98422;-41
2023/02/27 20:30:29;;;;;;;36.30;14.30;;;;;;;-0.94;68.72;99796.85;435888;1247;112808;-41
2023/02/27 20:40:36;;;;;;;17.60;8.50;;;;;;;-0.97;68.71;99800.32;435648;1248;108625;-41
2023/02/27 20:50:42;;;;;;;21.30;9.40;;;;;;;-0.95;68.34;99805.04;438969;1250;98594;-40
2023/02/27 21:00:49;;;;;;;23.50;9.40;;;;;;;-0.93;68.42;99808.88;440022;1252;108566;-40
2023/02/27 21:10:59;;;;;;;28.30;11.70;;;;;;;-0.89;68.17;99813.23;439294;1252;98722;-40
2023/02/27 21:21:09;;;;;;;57.60;28.80;;;;;;;-0.88;68.22;99811.41;439107;1252;111438;-39
2023/02/27 21:31:14;;;;;;;30.00;14.60;;;;;;;-0.88;67.77;99816.39;439120;1255;107209;-39
2023/02/27 21:41:21;;;;;;;27.80;13.30;;;;;;;-0.89;67.76;99824.97;439469;1254;116122;-40
2023/02/27 21:51:29;;;;;;;23.90;11.50;;;;;;;-0.90;67.68;99834.41;439261;1254;108225;-41
2023/02/27 22:01:47;;;;;;;26.80;12.60;;;;;;;-0.92;67.78;99836.84;439574;1254;99299;-40
2023/02/27 22:11:55;;;;;;;23.70;11.70;;;;;;;-0.95;67.87;99840.99;436684;1253;111288;-39
2023/02/27 22:22:02;;;;;;;23.30;11.60;;;;;;;-1.02;67.67;99840.88;435447;1255;108062;-41
2023/02/27 22:32:10;;;;;;;25.20;12.80;;;;;;;-1.10;67.94;99843.29;435818;1250;98527;-40
2023/02/27 22:42:17;;;;;;;38.10;23.10;;;;;;;-1.16;67.78;99839.67;435788;1250;107824;-40
2023/02/27 22:52:25;;;;;;;33.20;20.10;;;;;;;-1.24;67.67;99843.36;435690;1261;98092;-40
2023/02/27 23:12:39;;;;;;;14.00;7.30;;;;;;;-1.31;67.42;99847.94;435785;1252;107605;-40
2023/02/27 23:22:47;;;;;;;25.30;8.90;;;;;;;-1.39;67.53;99852.08;435828;1250;99191;-39
2023/02/27 23:32:54;;;;;;;18.30;8.60;;;;;;;-1.52;67.84;99853.10;435656;1252;108140;-39
2023/02/27 23:43:02;;;;;;;12.60;8.60;;;;;;;-1.70;67.80;99856.31;435835;1252;98828;-39
